Silverton, Texas
Current Conditions -  °F | °C
As of 2:15 PM on Saturday 20 Dec 2014 (Local Time) from KPVW Reporting Station
Broken Clouds Broken Clouds  
Wind Chill: 45°   Ceiling: 1700
Heat Index: 49°   Visibility: 10mi
Dew Point: 40°   Wind: 13mph
Humidity: 70%   Direction: 210°SSW
Pressure: 30.05"   Gusts: NA
Location:  34.47°N, 101.3°W
Report Text: KPVW 202015Z AUTO 21011KT 10SM BKN017 10/04 A3005 RMK AO2 T00970044
Loading
Personal Weather Stations






























Interactive Weather Map New forecast layout! Learn more

10-Day Weather Forecast

Advertisements
Track Severe Weather on mobile